• Join FlightAware (Why Join?)
  • Login
  • US Flag 
10:13AM EST


 

Airport Tracker/Info


-or-


 

Live Flight TrackerFlight Track Log ✈ KAL1331 ✈ 14-Aug-2014 ✈ RKSS / GMP - RKJY / RSU

Flight Track Log - Related Links

Times and Time Zones

All times are in EDT time to prevent confusion due to time zone crossing. See the KAL1331 flight status page for this flight to view local times or setup timezone preferences in your user account.

Time Position Orientation Groundspeed Altitude Reporting Facility
EDT Latitude Longitude Course Direction KTS MPH feet Rate Location/Type
06:07PM 37.2071 126.9005 166° South  Level Estimated
06:08PM 37.1193 126.9278 166° South  Level Estimated
06:09PM 37.0315 126.9551 166° South  Level Estimated
06:10PM 36.9436 126.9823 166° South  Level Estimated
06:11PM 36.8497 127.0113 166° South  Level Estimated
06:12PM 36.7558 127.0403 166° South  Level Estimated
06:13PM 36.6619 127.0691 166° South  Level Estimated
06:14PM 36.5680 127.0979 166° South  Level Estimated
06:15PM 36.4741 127.1266 166° South  Level Estimated
06:16PM 36.3802 127.1553 166° South  Level Estimated
06:17PM 36.2862 127.1839 166° South  Level Estimated
06:18PM 36.1923 127.2124 166° South  Level Estimated
06:19PM 36.0983 127.2408 166° South  Level Estimated
06:20PM 36.0044 127.2692 166° South  Level Estimated
06:21PM 35.9104 127.2975 166° South  Level Estimated
06:22PM 35.8164 127.3258 166° South  Level Estimated
06:23PM 35.7225 127.3540 166° South  Level Estimated
06:24PM 35.6285 127.3821 166° South  Level Estimated
06:25PM 35.5345 127.4101 166° South  Level Estimated
06:26PM 35.4405 127.4381 166° South  Level Estimated
06:27PM 35.3465 127.4660 166° South  Level Estimated
06:28PM 35.2525 127.4939 166° South  Level Estimated
06:29PM 35.1585 127.5216 166° South  Level Estimated
06:30PM 35.0645 127.5494 166° South  Level Estimated
06:31PM 34.9704 127.5770 166° South  Level Estimated
06:32PM 34.8764 127.6046 166° South  Level Estimated
06:33PM 34.8398 127.6153 166° South  Level Estimated
06:34PM 34.8398 127.6153 North  Level Estimated
06:35PM 34.8398 127.6153 North  Level Estimated
06:36PM 34.8398 127.6153 North  Level Estimated
06:37PM 34.8398 127.6153 North  Level Estimated
06:38PM 34.8398 127.6153 North  Level Estimated
06:39PM 34.8398 127.6153 North  Level Estimated
06:40PM 34.8398 127.6153 North  Level Estimated
06:41PM 34.8398 127.6153 North  Level Estimated
06:42PM 34.8398 127.6153 North  Level Estimated
06:43PM 34.8398 127.6153 North  Level Estimated
06:44PM 34.8398 127.6153 North  Level Estimated
06:45PM 34.8398 127.6153 North  Level Estimated
06:46PM 34.8398 127.6153 North  Level Estimated
06:47PM 34.8398 127.6153 North  Level Estimated
06:48PM 34.8398 127.6153 North  Level Estimated